sensor_id;sensor_type;location;lat;lon;timestamp;P1;durP1;ratioP1;P2;durP2;ratioP2
6693;SDS011;3384;42.628;23.380;2023-04-24T00:02:33;7.50;;;4.30;;
6693;SDS011;3384;42.628;23.380;2023-04-24T00:05:03;4.07;;;3.83;;
6693;SDS011;3384;42.628;23.380;2023-04-24T00:10:25;4.00;;;3.80;;
6693;SDS011;3384;42.628;23.380;2023-04-24T00:12:53;7.43;;;4.20;;
6693;SDS011;3384;42.628;23.380;2023-04-24T00:15:30;4.13;;;3.47;;
6693;SDS011;3384;42.628;23.380;2023-04-24T00:17:58;14.67;;;4.00;;
6693;SDS011;3384;42.628;23.380;2023-04-24T00:20:35;3.87;;;3.60;;
6693;SDS011;3384;42.628;23.380;2023-04-24T00:23:03;5.03;;;4.50;;
6693;SDS011;3384;42.628;23.380;2023-04-24T00:25:31;5.20;;;3.67;;
6693;SDS011;3384;42.628;23.380;2023-04-24T00:27:58;4.43;;;4.10;;
6693;SDS011;3384;42.628;23.380;2023-04-24T00:30:26;3.40;;;3.30;;
6693;SDS011;3384;42.628;23.380;2023-04-24T00:32:57;7.00;;;4.63;;
6693;SDS011;3384;42.628;23.380;2023-04-24T00:35:28;5.33;;;4.33;;
6693;SDS011;3384;42.628;23.380;2023-04-24T00:37:56;5.23;;;4.13;;
6693;SDS011;3384;42.628;23.380;2023-04-24T00:40:26;5.00;;;4.80;;
6693;SDS011;3384;42.628;23.380;2023-04-24T00:45:39;4.40;;;4.03;;
6693;SDS011;3384;42.628;23.380;2023-04-24T00:48:07;5.70;;;4.27;;
6693;SDS011;3384;42.628;23.380;2023-04-24T00:50:35;4.63;;;4.10;;
6693;SDS011;3384;42.628;23.380;2023-04-24T00:58:13;5.55;;;5.15;;
6693;SDS011;3384;42.628;23.380;2023-04-24T01:00:44;5.17;;;4.40;;
6693;SDS011;3384;42.628;23.380;2023-04-24T01:03:18;7.47;;;5.53;;
6693;SDS011;3384;42.628;23.380;2023-04-24T01:05:47;5.63;;;5.33;;
6693;SDS011;3384;42.628;23.380;2023-04-24T01:10:53;8.10;;;7.47;;
6693;SDS011;3384;42.628;23.380;2023-04-24T01:16:27;7.80;;;7.10;;
6693;SDS011;3384;42.628;23.380;2023-04-24T01:18:54;6.83;;;6.47;;
6693;SDS011;3384;42.628;23.380;2023-04-24T01:21:23;10.83;;;7.87;;
6693;SDS011;3384;42.628;23.380;2023-04-24T01:23:51;8.47;;;7.67;;
6693;SDS011;3384;42.628;23.380;2023-04-24T01:26:18;13.13;;;7.00;;
6693;SDS011;3384;42.628;23.380;2023-04-24T01:28:45;13.30;;;6.90;;
6693;SDS011;3384;42.628;23.380;2023-04-24T01:31:12;6.90;;;6.47;;
6693;SDS011;3384;42.628;23.380;2023-04-24T01:33:39;7.90;;;6.83;;
6693;SDS011;3384;42.628;23.380;2023-04-24T01:36:09;7.53;;;7.00;;
6693;SDS011;3384;42.628;23.380;2023-04-24T01:38:53;7.77;;;7.07;;
6693;SDS011;3384;42.628;23.380;2023-04-24T01:41:24;8.10;;;7.30;;
6693;SDS011;3384;42.628;23.380;2023-04-24T01:43:52;8.23;;;7.50;;
6693;SDS011;3384;42.628;23.380;2023-04-24T01:46:28;8.67;;;7.27;;
6693;SDS011;3384;42.628;23.380;2023-04-24T01:48:56;9.90;;;7.83;;
6693;SDS011;3384;42.628;23.380;2023-04-24T01:51:25;11.33;;;7.23;;
6693;SDS011;3384;42.628;23.380;2023-04-24T01:56:36;6.93;;;6.40;;
6693;SDS011;3384;42.628;23.380;2023-04-24T01:59:09;15.67;;;7.00;;
6693;SDS011;3384;42.628;23.380;2023-04-24T02:04:32;6.53;;;6.13;;
6693;SDS011;3384;42.628;23.380;2023-04-24T02:07:14;7.30;;;6.80;;
6693;SDS011;3384;42.628;23.380;2023-04-24T02:09:42;8.53;;;6.87;;
6693;SDS011;3384;42.628;23.380;2023-04-24T02:12:11;15.00;;;7.10;;
6693;SDS011;3384;42.628;23.380;2023-04-24T02:14:38;6.80;;;6.50;;
6693;SDS011;3384;42.628;23.380;2023-04-24T02:17:05;5.90;;;5.60;;
6693;SDS011;3384;42.628;23.380;2023-04-24T02:19:32;7.33;;;6.63;;
6693;SDS011;3384;42.628;23.380;2023-04-24T02:22:00;8.77;;;8.13;;
6693;SDS011;3384;42.628;23.380;2023-04-24T02:24:27;7.70;;;7.27;;
6693;SDS011;3384;42.628;23.380;2023-04-24T02:26:57;7.90;;;7.10;;
6693;SDS011;3384;42.628;23.380;2023-04-24T02:29:25;7.50;;;7.07;;
6693;SDS011;3384;42.628;23.380;2023-04-24T02:31:52;12.67;;;7.10;;
6693;SDS011;3384;42.628;23.380;2023-04-24T02:34:18;11.43;;;8.00;;
6693;SDS011;3384;42.628;23.380;2023-04-24T02:36:45;7.53;;;7.03;;
6693;SDS011;3384;42.628;23.380;2023-04-24T02:39:12;9.03;;;6.90;;
6693;SDS011;3384;42.628;23.380;2023-04-24T02:41:41;10.67;;;7.40;;
6693;SDS011;3384;42.628;23.380;2023-04-24T02:44:08;10.43;;;7.20;;
6693;SDS011;3384;42.628;23.380;2023-04-24T02:46:37;9.90;;;7.83;;
6693;SDS011;3384;42.628;23.380;2023-04-24T02:49:06;15.53;;;7.90;;
6693;SDS011;3384;42.628;23.380;2023-04-24T02:51:34;7.40;;;6.80;;
6693;SDS011;3384;42.628;23.380;2023-04-24T02:54:05;7.20;;;6.53;;
6693;SDS011;3384;42.628;23.380;2023-04-24T02:56:32;8.17;;;7.57;;
6693;SDS011;3384;42.628;23.380;2023-04-24T02:58:59;7.90;;;7.20;;
6693;SDS011;3384;42.628;23.380;2023-04-24T03:01:26;16.57;;;7.83;;
6693;SDS011;3384;42.628;23.380;2023-04-24T03:03:54;10.27;;;7.83;;
6693;SDS011;3384;42.628;23.380;2023-04-24T03:06:21;8.50;;;7.80;;
6693;SDS011;3384;42.628;23.380;2023-04-24T03:08:48;9.47;;;8.00;;
6693;SDS011;3384;42.628;23.380;2023-04-24T03:11:14;9.07;;;8.47;;
6693;SDS011;3384;42.628;23.380;2023-04-24T03:13:41;9.60;;;8.60;;
6693;SDS011;3384;42.628;23.380;2023-04-24T03:16:09;10.13;;;8.50;;
6693;SDS011;3384;42.628;23.380;2023-04-24T03:18:36;8.77;;;8.07;;
6693;SDS011;3384;42.628;23.380;2023-04-24T03:21:04;8.87;;;7.93;;
6693;SDS011;3384;42.628;23.380;2023-04-24T03:23:34;8.90;;;8.20;;
6693;SDS011;3384;42.628;23.380;2023-04-24T03:26:01;8.20;;;7.43;;
6693;SDS011;3384;42.628;23.380;2023-04-24T03:28:33;8.77;;;7.90;;
6693;SDS011;3384;42.628;23.380;2023-04-24T03:31:17;10.03;;;9.03;;
6693;SDS011;3384;42.628;23.380;2023-04-24T03:33:48;17.87;;;9.17;;
6693;SDS011;3384;42.628;23.380;2023-04-24T03:36:17;19.60;;;10.83;;
6693;SDS011;3384;42.628;23.380;2023-04-24T03:38:44;10.17;;;8.87;;
6693;SDS011;3384;42.628;23.380;2023-04-24T03:41:11;9.13;;;7.30;;
6693;SDS011;3384;42.628;23.380;2023-04-24T03:43:38;9.50;;;8.80;;
6693;SDS011;3384;42.628;23.380;2023-04-24T03:46:24;9.70;;;8.73;;
6693;SDS011;3384;42.628;23.380;2023-04-24T03:48:51;7.93;;;7.37;;
6693;SDS011;3384;42.628;23.380;2023-04-24T03:51:22;9.00;;;8.00;;
6693;SDS011;3384;42.628;23.380;2023-04-24T03:53:49;16.80;;;8.67;;
6693;SDS011;3384;42.628;23.380;2023-04-24T03:56:15;13.70;;;8.10;;
6693;SDS011;3384;42.628;23.380;2023-04-24T04:01:20;14.43;;;8.90;;
6693;SDS011;3384;42.628;23.380;2023-04-24T04:03:47;8.43;;;7.70;;
6693;SDS011;3384;42.628;23.380;2023-04-24T04:06:13;12.43;;;8.03;;
6693;SDS011;3384;42.628;23.380;2023-04-24T04:08:41;10.07;;;9.07;;
6693;SDS011;3384;42.628;23.380;2023-04-24T04:11:08;7.10;;;6.60;;
6693;SDS011;3384;42.628;23.380;2023-04-24T04:13:35;11.83;;;7.77;;
6693;SDS011;3384;42.628;23.380;2023-04-24T04:16:02;11.13;;;7.03;;
6693;SDS011;3384;42.628;23.380;2023-04-24T04:18:28;17.37;;;7.30;;
6693;SDS011;3384;42.628;23.380;2023-04-24T04:20:57;10.30;;;7.30;;
6693;SDS011;3384;42.628;23.380;2023-04-24T04:23:27;10.00;;;7.73;;
6693;SDS011;3384;42.628;23.380;2023-04-24T04:25:58;8.73;;;6.90;;
6693;SDS011;3384;42.628;23.380;2023-04-24T04:28:25;8.73;;;6.80;;
6693;SDS011;3384;42.628;23.380;2023-04-24T04:30:51;7.53;;;6.83;;
6693;SDS011;3384;42.628;23.380;2023-04-24T04:33:18;6.40;;;5.80;;
6693;SDS011;3384;42.628;23.380;2023-04-24T04:35:45;6.97;;;6.20;;
6693;SDS011;3384;42.628;23.380;2023-04-24T04:38:14;8.60;;;6.90;;
6693;SDS011;3384;42.628;23.380;2023-04-24T04:40:41;7.07;;;6.60;;
6693;SDS011;3384;42.628;23.380;2023-04-24T04:43:10;8.30;;;6.20;;
6693;SDS011;3384;42.628;23.380;2023-04-24T04:45:38;7.20;;;6.30;;
6693;SDS011;3384;42.628;23.380;2023-04-24T04:48:15;7.50;;;6.97;;
6693;SDS011;3384;42.628;23.380;2023-04-24T04:50:42;10.47;;;6.10;;
6693;SDS011;3384;42.628;23.380;2023-04-24T04:53:11;6.43;;;5.90;;
6693;SDS011;3384;42.628;23.380;2023-04-24T04:55:38;14.43;;;7.37;;
6693;SDS011;3384;42.628;23.380;2023-04-24T04:58:10;7.97;;;7.27;;
6693;SDS011;3384;42.628;23.380;2023-04-24T05:00:37;8.30;;;6.90;;
6693;SDS011;3384;42.628;23.380;2023-04-24T05:03:04;8.27;;;7.57;;
6693;SDS011;3384;42.628;23.380;2023-04-24T05:05:33;17.33;;;8.17;;
6693;SDS011;3384;42.628;23.380;2023-04-24T05:07:59;16.10;;;8.33;;
6693;SDS011;3384;42.628;23.380;2023-04-24T05:10:28;12.07;;;7.90;;
6693;SDS011;3384;42.628;23.380;2023-04-24T05:12:55;10.27;;;8.23;;
6693;SDS011;3384;42.628;23.380;2023-04-24T05:15:24;14.40;;;8.10;;
6693;SDS011;3384;42.628;23.380;2023-04-24T05:17:51;9.17;;;8.37;;
6693;SDS011;3384;42.628;23.380;2023-04-24T05:20:18;11.47;;;7.83;;
6693;SDS011;3384;42.628;23.380;2023-04-24T05:22:45;9.67;;;7.27;;
6693;SDS011;3384;42.628;23.380;2023-04-24T05:25:11;15.17;;;7.77;;
6693;SDS011;3384;42.628;23.380;2023-04-24T05:27:41;9.53;;;7.40;;
6693;SDS011;3384;42.628;23.380;2023-04-24T05:30:10;14.13;;;7.50;;
6693;SDS011;3384;42.628;23.380;2023-04-24T05:32:39;10.37;;;8.33;;
6693;SDS011;3384;42.628;23.380;2023-04-24T05:35:06;11.70;;;7.30;;
6693;SDS011;3384;42.628;23.380;2023-04-24T05:37:34;8.23;;;7.43;;
6693;SDS011;3384;42.628;23.380;2023-04-24T05:40:01;7.90;;;7.23;;
6693;SDS011;3384;42.628;23.380;2023-04-24T05:42:32;7.53;;;7.07;;
6693;SDS011;3384;42.628;23.380;2023-04-24T05:44:59;11.03;;;6.97;;
6693;SDS011;3384;42.628;23.380;2023-04-24T05:47:26;7.03;;;6.50;;
6693;SDS011;3384;42.628;23.380;2023-04-24T05:49:56;12.07;;;8.03;;
6693;SDS011;3384;42.628;23.380;2023-04-24T05:52:23;8.00;;;7.57;;
6693;SDS011;3384;42.628;23.380;2023-04-24T05:54:52;8.50;;;7.27;;
6693;SDS011;3384;42.628;23.380;2023-04-24T05:57:19;8.80;;;7.70;;
6693;SDS011;3384;42.628;23.380;2023-04-24T05:59:45;11.13;;;7.57;;
6693;SDS011;3384;42.628;23.380;2023-04-24T06:02:12;12.90;;;7.13;;
6693;SDS011;3384;42.628;23.380;2023-04-24T06:04:39;15.03;;;7.10;;
6693;SDS011;3384;42.628;23.380;2023-04-24T06:07:07;13.53;;;9.00;;
6693;SDS011;3384;42.628;23.380;2023-04-24T06:09:33;9.17;;;7.93;;
6693;SDS011;3384;42.628;23.380;2023-04-24T06:12:02;12.47;;;7.90;;
6693;SDS011;3384;42.628;23.380;2023-04-24T06:14:35;14.23;;;7.63;;
6693;SDS011;3384;42.628;23.380;2023-04-24T06:17:15;11.23;;;8.27;;
6693;SDS011;3384;42.628;23.380;2023-04-24T06:19:43;17.57;;;9.53;;
6693;SDS011;3384;42.628;23.380;2023-04-24T06:22:11;8.50;;;7.90;;
6693;SDS011;3384;42.628;23.380;2023-04-24T06:24:40;9.00;;;8.30;;
6693;SDS011;3384;42.628;23.380;2023-04-24T06:27:07;12.17;;;8.23;;
6693;SDS011;3384;42.628;23.380;2023-04-24T06:29:35;13.53;;;8.43;;
6693;SDS011;3384;42.628;23.380;2023-04-24T06:32:02;13.27;;;7.73;;
6693;SDS011;3384;42.628;23.380;2023-04-24T06:34:30;20.27;;;8.83;;
6693;SDS011;3384;42.628;23.380;2023-04-24T06:36:57;15.37;;;8.70;;
6693;SDS011;3384;42.628;23.380;2023-04-24T06:39:25;12.60;;;8.60;;
6693;SDS011;3384;42.628;23.380;2023-04-24T06:41:52;14.60;;;9.57;;
6693;SDS011;3384;42.628;23.380;2023-04-24T06:44:19;15.57;;;8.00;;
6693;SDS011;3384;42.628;23.380;2023-04-24T06:46:48;13.13;;;8.10;;
6693;SDS011;3384;42.628;23.380;2023-04-24T06:49:14;12.23;;;8.73;;
6693;SDS011;3384;42.628;23.380;2023-04-24T06:51:41;11.30;;;8.20;;
6693;SDS011;3384;42.628;23.380;2023-04-24T06:54:08;9.50;;;7.67;;
6693;SDS011;3384;42.628;23.380;2023-04-24T06:56:36;10.93;;;7.60;;
6693;SDS011;3384;42.628;23.380;2023-04-24T06:59:04;13.73;;;7.63;;
6693;SDS011;3384;42.628;23.380;2023-04-24T07:01:31;8.93;;;6.10;;
6693;SDS011;3384;42.628;23.380;2023-04-24T07:04:01;7.07;;;6.30;;
6693;SDS011;3384;42.628;23.380;2023-04-24T07:06:27;6.63;;;6.20;;
6693;SDS011;3384;42.628;23.380;2023-04-24T07:08:57;10.77;;;7.30;;
6693;SDS011;3384;42.628;23.380;2023-04-24T07:11:25;6.83;;;6.10;;
6693;SDS011;3384;42.628;23.380;2023-04-24T07:13:55;16.43;;;6.40;;
6693;SDS011;3384;42.628;23.380;2023-04-24T07:16:22;11.67;;;7.60;;
6693;SDS011;3384;42.628;23.380;2023-04-24T07:18:48;16.17;;;6.97;;
6693;SDS011;3384;42.628;23.380;2023-04-24T07:21:15;11.03;;;7.50;;
6693;SDS011;3384;42.628;23.380;2023-04-24T07:23:41;8.33;;;7.53;;
6693;SDS011;3384;42.628;23.380;2023-04-24T07:26:08;8.63;;;7.83;;
6693;SDS011;3384;42.628;23.380;2023-04-24T07:28:35;8.63;;;7.80;;
6693;SDS011;3384;42.628;23.380;2023-04-24T07:31:03;7.80;;;7.30;;
6693;SDS011;3384;42.628;23.380;2023-04-24T07:33:29;8.97;;;6.73;;
6693;SDS011;3384;42.628;23.380;2023-04-24T07:35:56;7.90;;;6.80;;
6693;SDS011;3384;42.628;23.380;2023-04-24T07:38:22;8.37;;;7.67;;
6693;SDS011;3384;42.628;23.380;2023-04-24T07:40:51;9.83;;;7.93;;
6693;SDS011;3384;42.628;23.380;2023-04-24T07:43:17;8.30;;;6.27;;
6693;SDS011;3384;42.628;23.380;2023-04-24T07:45:44;8.03;;;7.33;;
6693;SDS011;3384;42.628;23.380;2023-04-24T07:48:12;23.90;;;5.67;;
6693;SDS011;3384;42.628;23.380;2023-04-24T07:50:41;5.67;;;5.47;;
6693;SDS011;3384;42.628;23.380;2023-04-24T07:53:08;11.57;;;6.10;;
6693;SDS011;3384;42.628;23.380;2023-04-24T07:55:34;8.60;;;6.97;;
6693;SDS011;3384;42.628;23.380;2023-04-24T07:58:01;8.00;;;6.13;;
6693;SDS011;3384;42.628;23.380;2023-04-24T08:00:28;6.10;;;5.60;;
6693;SDS011;3384;42.628;23.380;2023-04-24T08:02:54;7.73;;;6.50;;
6693;SDS011;3384;42.628;23.380;2023-04-24T08:05:22;12.47;;;6.47;;
6693;SDS011;3384;42.628;23.380;2023-04-24T08:07:50;12.80;;;7.07;;
6693;SDS011;3384;42.628;23.380;2023-04-24T08:10:17;13.43;;;6.93;;
6693;SDS011;3384;42.628;23.380;2023-04-24T08:12:44;7.80;;;5.83;;
6693;SDS011;3384;42.628;23.380;2023-04-24T08:15:10;7.80;;;6.63;;
6693;SDS011;3384;42.628;23.380;2023-04-24T08:17:37;7.33;;;6.17;;
6693;SDS011;3384;42.628;23.380;2023-04-24T08:20:04;6.13;;;5.63;;
6693;SDS011;3384;42.628;23.380;2023-04-24T08:22:32;14.33;;;6.30;;
6693;SDS011;3384;42.628;23.380;2023-04-24T08:24:59;6.47;;;5.60;;
6693;SDS011;3384;42.628;23.380;2023-04-24T08:27:26;6.00;;;5.50;;
6693;SDS011;3384;42.628;23.380;2023-04-24T08:29:53;24.47;;;5.10;;
6693;SDS011;3384;42.628;23.380;2023-04-24T08:32:20;6.40;;;4.90;;
6693;SDS011;3384;42.628;23.380;2023-04-24T08:34:46;6.17;;;5.77;;
6693;SDS011;3384;42.628;23.380;2023-04-24T08:37:13;5.00;;;4.70;;
6693;SDS011;3384;42.628;23.380;2023-04-24T08:39:41;9.83;;;5.40;;
6693;SDS011;3384;42.628;23.380;2023-04-24T08:42:08;7.07;;;6.30;;
6693;SDS011;3384;42.628;23.380;2023-04-24T08:44:35;6.57;;;5.93;;
6693;SDS011;3384;42.628;23.380;2023-04-24T08:47:02;6.80;;;6.20;;
6693;SDS011;3384;42.628;23.380;2023-04-24T08:49:29;6.27;;;5.60;;
6693;SDS011;3384;42.628;23.380;2023-04-24T08:51:55;6.03;;;5.40;;
6693;SDS011;3384;42.628;23.380;2023-04-24T08:54:22;6.93;;;6.37;;
6693;SDS011;3384;42.628;23.380;2023-04-24T08:56:51;5.70;;;5.20;;
6693;SDS011;3384;42.628;23.380;2023-04-24T08:59:19;6.07;;;5.40;;
6693;SDS011;3384;42.628;23.380;2023-04-24T09:01:47;7.77;;;5.47;;
6693;SDS011;3384;42.628;23.380;2023-04-24T09:04:14;5.80;;;5.37;;
6693;SDS011;3384;42.628;23.380;2023-04-24T09:06:43;5.00;;;4.70;;
6693;SDS011;3384;42.628;23.380;2023-04-24T09:09:09;10.33;;;6.30;;
6693;SDS011;3384;42.628;23.380;2023-04-24T09:11:37;7.33;;;5.20;;
6693;SDS011;3384;42.628;23.380;2023-04-24T09:14:05;12.20;;;4.80;;
6693;SDS011;3384;42.628;23.380;2023-04-24T09:16:32;8.13;;;5.20;;
6693;SDS011;3384;42.628;23.380;2023-04-24T09:19:01;11.70;;;5.27;;
6693;SDS011;3384;42.628;23.380;2023-04-24T09:21:31;5.63;;;5.23;;
6693;SDS011;3384;42.628;23.380;2023-04-24T09:23:58;5.33;;;5.13;;
6693;SDS011;3384;42.628;23.380;2023-04-24T09:26:25;9.40;;;4.83;;
6693;SDS011;3384;42.628;23.380;2023-04-24T09:28:53;7.97;;;4.93;;
6693;SDS011;3384;42.628;23.380;2023-04-24T09:31:21;4.97;;;4.60;;
6693;SDS011;3384;42.628;23.380;2023-04-24T09:33:53;9.20;;;4.40;;
6693;SDS011;3384;42.628;23.380;2023-04-24T09:36:19;5.27;;;4.80;;
6693;SDS011;3384;42.628;23.380;2023-04-24T09:38:53;5.13;;;4.67;;
6693;SDS011;3384;42.628;23.380;2023-04-24T09:41:20;10.20;;;4.67;;
6693;SDS011;3384;42.628;23.380;2023-04-24T09:43:46;4.80;;;4.40;;
6693;SDS011;3384;42.628;23.380;2023-04-24T09:46:13;5.03;;;4.77;;
6693;SDS011;3384;42.628;23.380;2023-04-24T09:48:41;5.23;;;4.50;;
6693;SDS011;3384;42.628;23.380;2023-04-24T09:51:07;4.83;;;4.50;;
6693;SDS011;3384;42.628;23.380;2023-04-24T09:53:35;8.00;;;5.37;;
6693;SDS011;3384;42.628;23.380;2023-04-24T09:56:02;5.30;;;4.97;;
6693;SDS011;3384;42.628;23.380;2023-04-24T09:58:29;5.00;;;4.33;;
6693;SDS011;3384;42.628;23.380;2023-04-24T10:00:57;5.13;;;4.50;;
6693;SDS011;3384;42.628;23.380;2023-04-24T10:03:24;13.50;;;4.20;;
6693;SDS011;3384;42.628;23.380;2023-04-24T10:05:52;4.47;;;4.17;;
6693;SDS011;3384;42.628;23.380;2023-04-24T10:08:19;4.80;;;4.30;;
6693;SDS011;3384;42.628;23.380;2023-04-24T10:10:46;6.33;;;4.33;;
6693;SDS011;3384;42.628;23.380;2023-04-24T10:13:13;11.50;;;4.80;;
6693;SDS011;3384;42.628;23.380;2023-04-24T10:15:41;7.00;;;4.00;;
6693;SDS011;3384;42.628;23.380;2023-04-24T10:18:08;4.47;;;4.27;;
6693;SDS011;3384;42.628;23.380;2023-04-24T10:20:35;8.50;;;4.27;;
6693;SDS011;3384;42.628;23.380;2023-04-24T10:23:03;6.40;;;4.30;;
6693;SDS011;3384;42.628;23.380;2023-04-24T10:25:31;4.73;;;4.30;;
6693;SDS011;3384;42.628;23.380;2023-04-24T10:27:58;6.57;;;4.10;;
6693;SDS011;3384;42.628;23.380;2023-04-24T10:30:26;4.10;;;3.80;;
6693;SDS011;3384;42.628;23.380;2023-04-24T10:32:52;10.43;;;4.90;;
6693;SDS011;3384;42.628;23.380;2023-04-24T10:35:19;14.57;;;4.80;;
6693;SDS011;3384;42.628;23.380;2023-04-24T10:37:48;8.60;;;4.30;;
6693;SDS011;3384;42.628;23.380;2023-04-24T10:40:17;8.63;;;4.10;;
6693;SDS011;3384;42.628;23.380;2023-04-24T10:42:46;24.23;;;4.00;;
6693;SDS011;3384;42.628;23.380;2023-04-24T10:45:16;16.23;;;3.60;;
6693;SDS011;3384;42.628;23.380;2023-04-24T10:47:50;4.10;;;3.90;;
6693;SDS011;3384;42.628;23.380;2023-04-24T10:50:17;3.80;;;3.60;;
6693;SDS011;3384;42.628;23.380;2023-04-24T10:52:44;6.90;;;3.17;;
6693;SDS011;3384;42.628;23.380;2023-04-24T10:55:10;4.30;;;3.80;;
6693;SDS011;3384;42.628;23.380;2023-04-24T10:57:40;3.10;;;2.97;;
6693;SDS011;3384;42.628;23.380;2023-04-24T11:00:26;3.83;;;3.70;;
6693;SDS011;3384;42.628;23.380;2023-04-24T11:02:53;3.33;;;3.17;;
6693;SDS011;3384;42.628;23.380;2023-04-24T11:05:20;6.27;;;3.83;;
6693;SDS011;3384;42.628;23.380;2023-04-24T11:10:29;4.47;;;4.17;;
6693;SDS011;3384;42.628;23.380;2023-04-24T11:12:57;4.57;;;3.70;;
6693;SDS011;3384;42.628;23.380;2023-04-24T11:15:23;4.27;;;4.03;;
6693;SDS011;3384;42.628;23.380;2023-04-24T11:17:50;7.37;;;3.70;;
6693;SDS011;3384;42.628;23.380;2023-04-24T11:20:22;5.63;;;3.00;;
6693;SDS011;3384;42.628;23.380;2023-04-24T11:22:50;4.00;;;3.20;;
6693;SDS011;3384;42.628;23.380;2023-04-24T11:25:19;3.43;;;3.23;;
6693;SDS011;3384;42.628;23.380;2023-04-24T11:27:47;3.50;;;3.20;;
6693;SDS011;3384;42.628;23.380;2023-04-24T11:30:18;12.10;;;6.00;;
6693;SDS011;3384;42.628;23.380;2023-04-24T11:32:47;4.67;;;4.33;;
6693;SDS011;3384;42.628;23.380;2023-04-24T11:35:15;8.93;;;4.83;;
6693;SDS011;3384;42.628;23.380;2023-04-24T11:37:43;9.27;;;4.70;;
6693;SDS011;3384;42.628;23.380;2023-04-24T11:40:11;3.30;;;3.10;;
6693;SDS011;3384;42.628;23.380;2023-04-24T11:42:41;3.80;;;3.23;;
6693;SDS011;3384;42.628;23.380;2023-04-24T11:45:08;3.63;;;3.43;;
6693;SDS011;3384;42.628;23.380;2023-04-24T11:47:37;4.03;;;3.63;;
6693;SDS011;3384;42.628;23.380;2023-04-24T11:50:05;4.90;;;4.60;;
6693;SDS011;3384;42.628;23.380;2023-04-24T11:52:33;4.23;;;4.00;;
6693;SDS011;3384;42.628;23.380;2023-04-24T11:55:00;4.90;;;4.60;;
6693;SDS011;3384;42.628;23.380;2023-04-24T11:57:27;3.40;;;3.30;;
6693;SDS011;3384;42.628;23.380;2023-04-24T11:59:58;4.07;;;3.80;;
6693;SDS011;3384;42.628;23.380;2023-04-24T12:02:25;4.07;;;3.80;;
6693;SDS011;3384;42.628;23.380;2023-04-24T12:04:54;4.63;;;3.53;;
6693;SDS011;3384;42.628;23.380;2023-04-24T12:07:20;8.40;;;6.87;;
6693;SDS011;3384;42.628;23.380;2023-04-24T12:09:49;4.80;;;3.73;;
6693;SDS011;3384;42.628;23.380;2023-04-24T12:12:16;13.77;;;4.70;;
6693;SDS011;3384;42.628;23.380;2023-04-24T12:14:43;5.00;;;4.60;;
6693;SDS011;3384;42.628;23.380;2023-04-24T12:17:10;3.90;;;3.70;;
6693;SDS011;3384;42.628;23.380;2023-04-24T12:19:37;6.40;;;4.20;;
6693;SDS011;3384;42.628;23.380;2023-04-24T12:22:05;13.30;;;6.13;;
6693;SDS011;3384;42.628;23.380;2023-04-24T12:24:32;14.83;;;4.10;;
6693;SDS011;3384;42.628;23.380;2023-04-24T12:26:59;4.07;;;3.97;;
6693;SDS011;3384;42.628;23.380;2023-04-24T12:29:26;4.20;;;4.10;;
6693;SDS011;3384;42.628;23.380;2023-04-24T12:31:53;7.17;;;3.80;;
6693;SDS011;3384;42.628;23.380;2023-04-24T12:34:20;3.50;;;3.37;;
6693;SDS011;3384;42.628;23.380;2023-04-24T12:36:47;3.43;;;3.33;;
6693;SDS011;3384;42.628;23.380;2023-04-24T12:39:16;2.93;;;2.83;;
6693;SDS011;3384;42.628;23.380;2023-04-24T12:41:50;2.97;;;2.87;;
6693;SDS011;3384;42.628;23.380;2023-04-24T12:44:17;3.10;;;3.00;;
6693;SDS011;3384;42.628;23.380;2023-04-24T12:46:43;4.03;;;3.93;;
6693;SDS011;3384;42.628;23.380;2023-04-24T12:49:10;4.23;;;3.73;;
6693;SDS011;3384;42.628;23.380;2023-04-24T12:51:37;5.67;;;5.17;;
6693;SDS011;3384;42.628;23.380;2023-04-24T12:54:03;7.33;;;5.67;;
6693;SDS011;3384;42.628;23.380;2023-04-24T12:56:31;4.30;;;4.00;;
6693;SDS011;3384;42.628;23.380;2023-04-24T12:58:58;4.10;;;3.90;;
6693;SDS011;3384;42.628;23.380;2023-04-24T13:01:25;4.00;;;3.80;;
6693;SDS011;3384;42.628;23.380;2023-04-24T13:03:52;3.93;;;3.23;;
6693;SDS011;3384;42.628;23.380;2023-04-24T13:06:19;7.20;;;6.50;;
6693;SDS011;3384;42.628;23.380;2023-04-24T13:08:46;8.67;;;7.77;;
6693;SDS011;3384;42.628;23.380;2023-04-24T13:11:13;4.37;;;4.10;;
6693;SDS011;3384;42.628;23.380;2023-04-24T13:13:41;6.47;;;4.30;;
6693;SDS011;3384;42.628;23.380;2023-04-24T13:16:08;4.50;;;3.93;;
6693;SDS011;3384;42.628;23.380;2023-04-24T13:18:34;5.43;;;4.60;;
6693;SDS011;3384;42.628;23.380;2023-04-24T13:21:01;4.40;;;4.13;;
6693;SDS011;3384;42.628;23.380;2023-04-24T13:23:28;4.47;;;4.07;;
6693;SDS011;3384;42.628;23.380;2023-04-24T13:25:54;10.33;;;4.20;;
6693;SDS011;3384;42.628;23.380;2023-04-24T13:28:22;5.17;;;3.60;;
6693;SDS011;3384;42.628;23.380;2023-04-24T13:30:54;5.10;;;4.80;;
6693;SDS011;3384;42.628;23.380;2023-04-24T13:33:22;7.97;;;4.67;;
6693;SDS011;3384;42.628;23.380;2023-04-24T13:35:48;4.57;;;4.37;;
6693;SDS011;3384;42.628;23.380;2023-04-24T13:38:15;4.47;;;3.60;;
6693;SDS011;3384;42.628;23.380;2023-04-24T13:40:41;4.10;;;3.90;;
6693;SDS011;3384;42.628;23.380;2023-04-24T13:43:08;4.43;;;4.10;;
6693;SDS011;3384;42.628;23.380;2023-04-24T13:45:35;4.90;;;4.03;;
6693;SDS011;3384;42.628;23.380;2023-04-24T13:48:03;4.03;;;3.73;;
6693;SDS011;3384;42.628;23.380;2023-04-24T13:50:29;7.07;;;4.60;;
6693;SDS011;3384;42.628;23.380;2023-04-24T13:52:56;6.30;;;4.80;;
6693;SDS011;3384;42.628;23.380;2023-04-24T13:55:25;4.53;;;4.13;;
6693;SDS011;3384;42.628;23.380;2023-04-24T13:57:51;7.80;;;4.80;;
6693;SDS011;3384;42.628;23.380;2023-04-24T14:00:20;4.50;;;4.33;;
6693;SDS011;3384;42.628;23.380;2023-04-24T14:02:47;4.83;;;3.93;;
6693;SDS011;3384;42.628;23.380;2023-04-24T14:05:15;4.40;;;4.30;;
6693;SDS011;3384;42.628;23.380;2023-04-24T14:07:41;4.83;;;4.43;;
6693;SDS011;3384;42.628;23.380;2023-04-24T14:10:08;4.33;;;4.13;;
6693;SDS011;3384;42.628;23.380;2023-04-24T14:12:35;4.53;;;4.07;;
6693;SDS011;3384;42.628;23.380;2023-04-24T14:15:02;6.13;;;4.60;;
6693;SDS011;3384;42.628;23.380;2023-04-24T14:17:29;4.60;;;4.40;;
6693;SDS011;3384;42.628;23.380;2023-04-24T14:19:56;8.03;;;4.10;;
6693;SDS011;3384;42.628;23.380;2023-04-24T14:22:26;5.50;;;5.00;;
6693;SDS011;3384;42.628;23.380;2023-04-24T14:24:53;3.67;;;3.47;;
6693;SDS011;3384;42.628;23.380;2023-04-24T14:27:19;10.80;;;3.77;;
6693;SDS011;3384;42.628;23.380;2023-04-24T14:29:46;3.70;;;3.40;;
6693;SDS011;3384;42.628;23.380;2023-04-24T14:32:12;4.07;;;3.90;;
6693;SDS011;3384;42.628;23.380;2023-04-24T14:34:40;3.23;;;2.90;;
6693;SDS011;3384;42.628;23.380;2023-04-24T14:37:06;3.33;;;3.13;;
6693;SDS011;3384;42.628;23.380;2023-04-24T14:39:34;6.07;;;3.47;;
6693;SDS011;3384;42.628;23.380;2023-04-24T14:42:01;2.40;;;2.30;;
6693;SDS011;3384;42.628;23.380;2023-04-24T14:44:28;2.60;;;2.40;;
6693;SDS011;3384;42.628;23.380;2023-04-24T14:46:54;3.47;;;2.40;;
6693;SDS011;3384;42.628;23.380;2023-04-24T14:49:21;2.60;;;2.50;;
6693;SDS011;3384;42.628;23.380;2023-04-24T14:51:48;7.90;;;3.30;;
6693;SDS011;3384;42.628;23.380;2023-04-24T14:54:14;3.50;;;3.20;;
6693;SDS011;3384;42.628;23.380;2023-04-24T14:56:42;4.30;;;3.93;;
6693;SDS011;3384;42.628;23.380;2023-04-24T14:59:09;4.57;;;3.73;;
6693;SDS011;3384;42.628;23.380;2023-04-24T15:01:36;4.43;;;4.03;;
6693;SDS011;3384;42.628;23.380;2023-04-24T15:04:04;3.20;;;3.00;;
6693;SDS011;3384;42.628;23.380;2023-04-24T15:06:34;3.70;;;3.50;;
6693;SDS011;3384;42.628;23.380;2023-04-24T15:09:04;6.30;;;3.20;;
6693;SDS011;3384;42.628;23.380;2023-04-24T15:11:30;3.90;;;3.73;;
6693;SDS011;3384;42.628;23.380;2023-04-24T15:16:52;3.50;;;3.30;;
6693;SDS011;3384;42.628;23.380;2023-04-24T15:19:20;3.53;;;3.33;;
6693;SDS011;3384;42.628;23.380;2023-04-24T15:21:47;3.33;;;3.23;;
6693;SDS011;3384;42.628;23.380;2023-04-24T15:24:14;4.00;;;3.70;;
6693;SDS011;3384;42.628;23.380;2023-04-24T15:26:42;7.67;;;4.30;;
6693;SDS011;3384;42.628;23.380;2023-04-24T15:29:09;5.23;;;4.07;;
6693;SDS011;3384;42.628;23.380;2023-04-24T15:31:38;4.63;;;4.20;;
6693;SDS011;3384;42.628;23.380;2023-04-24T15:34:09;3.87;;;3.67;;